Terminal Aerodrome Forecast
Issued by NWS Twin Cities, MN

Home | Current Version | Previous Version | Graphics & Text | Print | Product List | Glossary On
Versions: 1 2 3 4 5 6 7 8 9 10 11 12 13 14 15 16 17 18 19 20 21 22 23 24 25 26 27 28 29 30
194
FTUS43 KMPX 212044 AAA
TAFMSP
TAF AMD
KMSP 212044Z 2121/2224 29009KT P6SM SCT060
     FM220000 23004KT P6SM SCT250
     FM220400 17005KT P6SM SCT250
     FM221500 19011G18KT P6SM SCT250
     FM221800 19017G25KT P6SM SKC=

USA.gov is the U.S. government's official web portal to all federal, state and local government web resources and services.